createdAt,value
2023-01-29T00:00:24.228Z,100516.47
2023-01-29T00:02:55.181Z,100502.50
2023-01-29T00:05:28.328Z,100505.84
2023-01-29T00:07:58.022Z,100505.94
2023-01-29T00:10:26.959Z,100501.66
2023-01-29T00:12:55.534Z,100502.53
2023-01-29T00:15:24.680Z,100508.09
2023-01-29T00:17:54.510Z,100509.66
2023-01-29T00:20:23.001Z,100508.19
2023-01-29T00:22:51.217Z,100516.75
2023-01-29T00:25:19.193Z,100504.53
2023-01-29T00:27:49.801Z,100508.00
2023-01-29T00:30:20.266Z,100507.44
2023-01-29T00:32:49.214Z,100502.19
2023-01-29T00:35:17.804Z,100495.88
2023-01-29T00:37:46.060Z,100496.59
2023-01-29T00:40:15.022Z,100508.97
2023-01-29T00:43:04.495Z,100513.34
2023-01-29T00:45:32.688Z,100505.50
2023-01-29T00:48:01.011Z,100508.16
2023-01-29T00:50:29.605Z,100508.81
2023-01-29T00:52:58.284Z,100500.81
2023-01-29T00:55:26.580Z,100508.00
2023-01-29T00:57:55.399Z,100517.72
2023-01-29T01:00:26.305Z,100512.53
2023-01-29T01:03:06.556Z,100519.63
2023-01-29T01:05:37.233Z,100505.75
2023-01-29T01:08:25.664Z,100521.38
2023-01-29T01:11:00.250Z,100506.50
2023-01-29T01:13:28.970Z,100508.38
2023-01-29T01:15:59.919Z,100504.88
2023-01-29T01:18:32.184Z,100512.81
2023-01-29T01:25:57.249Z,100506.16
2023-01-29T01:28:26.259Z,100507.09
2023-01-29T01:30:55.086Z,100505.41
2023-01-29T01:33:23.192Z,100507.19
2023-01-29T01:35:51.357Z,100502.91
2023-01-29T01:38:20.352Z,100502.16
2023-01-29T01:40:48.413Z,100501.22
2023-01-29T01:43:16.379Z,100501.94
2023-01-29T01:45:47.115Z,100497.63
2023-01-29T01:48:18.370Z,100495.09
2023-01-29T01:51:00.180Z,100496.81
2023-01-29T01:53:41.315Z,100497.75
2023-01-29T01:56:13.856Z,100497.09
2023-01-29T01:58:51.558Z,100514.06
2023-01-29T02:01:27.456Z,100507.78
2023-01-29T02:04:20.564Z,100504.22
2023-01-29T02:07:07.735Z,100504.13
2023-01-29T02:09:41.005Z,100502.38
2023-01-29T02:12:12.359Z,100495.31
2023-01-29T02:14:42.583Z,100500.50
2023-01-29T02:17:21.994Z,100498.88
2023-01-29T02:19:57.993Z,100501.53
2023-01-29T02:23:09.054Z,100492.88
2023-01-29T02:25:59.827Z,100486.66
2023-01-29T02:28:59.564Z,100476.91
2023-01-29T02:31:42.295Z,100479.53
2023-01-29T02:34:32.311Z,100483.09
2023-01-29T02:37:10.877Z,100490.16
2023-01-29T02:39:58.253Z,100485.69
2023-01-29T02:42:36.363Z,100484.03
2023-01-29T02:45:14.759Z,100479.72
2023-01-29T02:47:49.525Z,100484.97
2023-01-29T02:50:54.705Z,100481.53
2023-01-29T02:53:34.029Z,100489.53
2023-01-29T02:56:13.074Z,100495.59
2023-01-29T02:59:14.069Z,100486.81
2023-01-29T03:02:07.473Z,100493.06
2023-01-29T03:04:39.047Z,100489.59
2023-01-29T03:07:35.049Z,100493.16
2023-01-29T03:10:05.566Z,100488.66
2023-01-29T03:13:02.050Z,100494.00
2023-01-29T03:15:39.296Z,100491.56
2023-01-29T03:18:11.436Z,100498.41
2023-01-29T03:20:54.034Z,100498.56
2023-01-29T03:23:44.707Z,100494.41
2023-01-29T03:26:36.311Z,100497.06
2023-01-29T03:29:24.059Z,100499.75
2023-01-29T03:32:17.219Z,100501.53
2023-01-29T03:34:52.401Z,100496.19
2023-01-29T03:37:33.638Z,100492.56
2023-01-29T03:40:04.493Z,100500.53
2023-01-29T03:43:04.207Z,100489.78
2023-01-29T03:46:02.963Z,100495.84
2023-01-29T03:48:54.066Z,100498.56
2023-01-29T03:51:40.949Z,100484.72
2023-01-29T03:54:18.874Z,100493.28
2023-01-29T03:57:03.858Z,100490.63
2023-01-29T03:59:53.730Z,100489.78
2023-01-29T04:02:32.224Z,100498.69
2023-01-29T04:05:05.373Z,100490.78
2023-01-29T04:07:35.056Z,100500.53
2023-01-29T04:10:13.640Z,100490.91
2023-01-29T04:12:47.830Z,100490.84
2023-01-29T04:15:18.169Z,100491.69
2023-01-29T04:17:53.044Z,100482.84
2023-01-29T04:20:21.439Z,100486.28
2023-01-29T04:22:51.418Z,100495.25
2023-01-29T04:25:32.595Z,100487.28
2023-01-29T04:28:29.583Z,100495.28
2023-01-29T04:31:02.362Z,100490.91
2023-01-29T04:33:57.790Z,100490.00
2023-01-29T04:36:38.303Z,100496.19
2023-01-29T04:39:45.151Z,100508.59
2023-01-29T04:43:01.883Z,100494.41
2023-01-29T04:45:49.371Z,100492.75
2023-01-29T04:48:26.383Z,100495.28
2023-01-29T04:51:12.097Z,100494.34
2023-01-29T04:53:59.092Z,100499.56
2023-01-29T04:56:34.217Z,100499.56
2023-01-29T04:59:15.005Z,100497.81
2023-01-29T05:01:46.999Z,100502.13
2023-01-29T05:04:17.310Z,100495.06
2023-01-29T05:06:47.735Z,100494.28
2023-01-29T05:09:17.708Z,100490.84
2023-01-29T05:11:51.699Z,100495.94
2023-01-29T05:14:20.534Z,100497.91
2023-01-29T05:16:52.288Z,100498.56
2023-01-29T05:19:20.716Z,100498.44
2023-01-29T05:21:50.965Z,100495.00
2023-01-29T05:24:26.211Z,100510.63
2023-01-29T05:27:16.973Z,100509.91
2023-01-29T05:29:47.631Z,100509.91
2023-01-29T05:32:16.135Z,100504.38
2023-01-29T05:34:44.571Z,100498.22
2023-01-29T05:37:12.896Z,100502.66
2023-01-29T05:39:41.093Z,100508.72
2023-01-29T05:42:09.079Z,100497.16
2023-01-29T05:44:37.678Z,100505.88
2023-01-29T05:47:06.087Z,100508.38
2023-01-29T05:49:34.087Z,100513.47
2023-01-29T05:52:02.302Z,100508.19
2023-01-29T05:54:30.612Z,100518.66
2023-01-29T05:56:59.072Z,100514.25
2023-01-29T05:59:27.293Z,100528.56
2023-01-29T06:01:55.483Z,100518.78
2023-01-29T06:04:23.435Z,100522.50
2023-01-29T06:06:52.111Z,100522.44
2023-01-29T06:09:20.358Z,100529.44
2023-01-29T06:11:48.632Z,100520.66
2023-01-29T06:14:16.701Z,100524.84
2023-01-29T06:16:46.737Z,100525.50
2023-01-29T06:19:14.944Z,100520.03
2023-01-29T06:21:42.948Z,100522.88
2023-01-29T06:24:10.979Z,100533.09
2023-01-29T06:26:39.307Z,100534.22
2023-01-29T06:29:07.429Z,100527.28
2023-01-29T06:31:39.683Z,100544.91
2023-01-29T06:34:09.255Z,100531.72
2023-01-29T06:36:39.408Z,100531.72
2023-01-29T06:39:07.534Z,100534.28
2023-01-29T06:41:36.195Z,100525.44
2023-01-29T06:44:04.355Z,100533.94
2023-01-29T06:46:32.787Z,100526.50
2023-01-29T06:49:01.182Z,100519.78
2023-01-29T06:51:31.047Z,100510.94
2023-01-29T06:54:01.728Z,100521.41
2023-01-29T06:56:30.256Z,100526.66
2023-01-29T06:58:58.394Z,100525.41
2023-01-29T07:01:35.716Z,100526.72
2023-01-29T07:04:05.105Z,100521.91
2023-01-29T07:06:34.065Z,100522.38
2023-01-29T07:09:04.071Z,100515.88
2023-01-29T07:11:37.719Z,100519.31
2023-01-29T07:14:08.125Z,100517.78
2023-01-29T07:16:36.349Z,100517.41
2023-01-29T07:19:04.748Z,100522.75
2023-01-29T07:21:33.067Z,100522.41
2023-01-29T07:24:03.160Z,100515.88
2023-01-29T07:26:31.621Z,100508.72
2023-01-29T07:28:59.807Z,100509.72
2023-01-29T07:31:30.093Z,100510.97
2023-01-29T07:33:58.368Z,100514.56
2023-01-29T07:36:27.824Z,100514.38
2023-01-29T07:38:56.181Z,100515.97
2023-01-29T07:41:24.986Z,100520.06
2023-01-29T07:43:53.969Z,100517.97
2023-01-29T07:46:22.508Z,100510.84
2023-01-29T07:48:52.622Z,100515.97
2023-01-29T07:51:21.779Z,100519.50
2023-01-29T07:53:50.053Z,100513.59
2023-01-29T07:56:18.132Z,100511.25
2023-01-29T07:58:46.162Z,100507.75
2023-01-29T08:01:14.759Z,100502.97
2023-01-29T08:03:43.575Z,100516.06
2023-01-29T08:06:11.697Z,100512.56
2023-01-29T08:08:40.126Z,100512.59
2023-01-29T08:11:08.145Z,100514.66
2023-01-29T08:13:40.005Z,100514.63
2023-01-29T08:16:08.770Z,100512.84
2023-01-29T08:18:38.371Z,100510.78
2023-01-29T08:21:06.319Z,100508.66
2023-01-29T08:23:34.091Z,100508.06
2023-01-29T08:26:05.319Z,100517.66
2023-01-29T08:28:35.884Z,100525.41
2023-01-29T08:31:03.915Z,100523.16
2023-01-29T08:33:39.293Z,100519.03
2023-01-29T08:36:09.735Z,100518.28
2023-01-29T08:38:38.423Z,100516.25
2023-01-29T08:41:08.028Z,100513.13
2023-01-29T08:43:40.909Z,100520.31
2023-01-29T08:46:11.923Z,100525.28
2023-01-29T08:48:40.326Z,100518.06
2023-01-29T08:51:08.903Z,100514.53
2023-01-29T08:53:38.130Z,100523.03
2023-01-29T08:56:11.879Z,100526.53
2023-01-29T08:58:40.290Z,100519.38
2023-01-29T09:01:13.382Z,100518.63
2023-01-29T09:03:44.016Z,100522.28
2023-01-29T09:06:13.186Z,100520.94
2023-01-29T09:08:44.498Z,100508.28
2023-01-29T09:11:12.751Z,100511.66
2023-01-29T09:13:41.200Z,100516.47
2023-01-29T09:16:13.191Z,100515.81
2023-01-29T09:18:42.083Z,100512.06
2023-01-29T09:21:09.969Z,100505.09
2023-01-29T09:23:38.773Z,100512.09
2023-01-29T09:26:09.225Z,100500.47
2023-01-29T09:28:37.808Z,100496.53
2023-01-29T09:31:05.963Z,100495.09
2023-01-29T09:33:34.311Z,100501.75
2023-01-29T09:36:04.585Z,100502.34
2023-01-29T09:38:32.940Z,100489.16
2023-01-29T09:41:06.853Z,100504.25
2023-01-29T09:43:50.085Z,100493.63
2023-01-29T09:47:01.115Z,100501.03
2023-01-29T09:49:38.378Z,100492.44
2023-01-29T09:52:23.033Z,100486.53
2023-01-29T09:55:05.356Z,100485.03
2023-01-29T09:57:58.355Z,100490.53
2023-01-29T10:00:54.003Z,100475.66
2023-01-29T10:03:41.627Z,100473.13
2023-01-29T10:06:09.825Z,100461.63
2023-01-29T10:08:56.672Z,100462.22
2023-01-29T10:11:27.264Z,100462.34
2023-01-29T10:14:21.205Z,100460.09
2023-01-29T10:17:24.261Z,100459.28
2023-01-29T10:20:27.231Z,100456.44
2023-01-29T10:23:14.232Z,100448.44
2023-01-29T10:25:43.358Z,100460.47
2023-01-29T10:28:35.249Z,100461.00
2023-01-29T10:31:16.797Z,100472.09
2023-01-29T10:34:02.035Z,100459.63
2023-01-29T10:36:43.234Z,100452.13
2023-01-29T10:39:21.748Z,100440.16
2023-01-29T10:42:09.125Z,100442.66
2023-01-29T10:44:45.371Z,100434.72
2023-01-29T10:47:51.155Z,100436.66
2023-01-29T10:50:44.829Z,100432.66
2023-01-29T10:53:35.295Z,100442.34
2023-01-29T10:56:22.838Z,100431.63
2023-01-29T10:58:59.883Z,100433.41
2023-01-29T11:01:28.466Z,100438.34
2023-01-29T11:03:59.870Z,100434.03
2023-01-29T11:06:36.639Z,100442.47
2023-01-29T11:09:19.559Z,100428.03
2023-01-29T11:11:58.550Z,100452.47
2023-01-29T11:14:45.582Z,100437.56
2023-01-29T11:17:23.440Z,100438.91
2023-01-29T11:19:53.731Z,100447.78
2023-01-29T11:22:29.241Z,100447.28
2023-01-29T11:25:20.277Z,100443.75
2023-01-29T11:27:52.951Z,100440.44
2023-01-29T11:30:30.841Z,100463.22
2023-01-29T11:33:18.630Z,100460.41
2023-01-29T11:35:47.985Z,100454.47
2023-01-29T11:38:16.544Z,100445.03
2023-01-29T11:40:47.805Z,100460.16
2023-01-29T11:43:32.618Z,100461.28
2023-01-29T11:46:07.783Z,100453.78
2023-01-29T11:48:50.482Z,100452.91
2023-01-29T11:51:29.505Z,100462.97
2023-01-29T11:54:00.396Z,100476.28
2023-01-29T11:56:43.040Z,100469.22
2023-01-29T11:59:50.679Z,100474.34
2023-01-29T12:02:18.902Z,100480.63
2023-01-29T12:04:47.839Z,100485.09
2023-01-29T12:07:17.836Z,100473.66
2023-01-29T12:09:57.509Z,100465.94
2023-01-29T12:12:32.593Z,100473.13
2023-01-29T12:15:11.071Z,100476.44
2023-01-29T12:17:39.704Z,100472.69
2023-01-29T12:20:23.913Z,100477.84
2023-01-29T12:23:05.774Z,100487.13
2023-01-29T12:25:45.741Z,100485.72
2023-01-29T12:28:24.460Z,100492.09
2023-01-29T12:31:24.571Z,100483.06
2023-01-29T12:34:17.852Z,100480.22
2023-01-29T12:37:25.064Z,100472.00
2023-01-29T12:39:56.976Z,100477.78
2023-01-29T12:42:25.931Z,100473.56
2023-01-29T12:44:59.023Z,100486.13
2023-01-29T12:47:41.896Z,100485.16
2023-01-29T12:50:28.866Z,100493.13
2023-01-29T12:53:08.141Z,100480.75
2023-01-29T12:55:45.444Z,100486.06
2023-01-29T12:58:21.610Z,100488.00
2023-01-29T13:00:52.669Z,100497.66
2023-01-29T13:04:12.248Z,100491.25
2023-01-29T13:06:43.587Z,100486.72
2023-01-29T13:09:19.410Z,100497.31
2023-01-29T13:11:52.904Z,100494.91
2023-01-29T13:14:25.066Z,100499.09
2023-01-29T13:16:58.637Z,100495.31
2023-01-29T13:19:35.010Z,100503.47
2023-01-29T13:22:15.776Z,100512.19
2023-01-29T13:24:58.605Z,100499.81
2023-01-29T13:27:34.212Z,100509.47
2023-01-29T13:30:04.530Z,100517.69
2023-01-29T13:32:35.456Z,100520.34
2023-01-29T13:35:05.878Z,100525.53
2023-01-29T13:37:52.065Z,100515.84
2023-01-29T13:40:26.766Z,100520.13
2023-01-29T13:43:00.607Z,100526.13
2023-01-29T13:45:37.397Z,100514.81
2023-01-29T13:48:24.924Z,100519.06
2023-01-29T13:50:54.232Z,100523.84
2023-01-29T13:53:30.185Z,100520.41
2023-01-29T13:56:31.213Z,100518.84
2023-01-29T13:59:02.963Z,100526.16
2023-01-29T14:01:49.850Z,100532.19
2023-01-29T14:04:47.242Z,100529.63
2023-01-29T14:07:46.473Z,100525.34
2023-01-29T14:10:20.624Z,100543.03
2023-01-29T14:13:19.166Z,100534.38
2023-01-29T14:15:59.583Z,100545.72
2023-01-29T14:18:33.135Z,100541.72
2023-01-29T14:21:17.387Z,100536.44
2023-01-29T14:23:51.414Z,100539.78
2023-01-29T14:26:29.752Z,100550.44
2023-01-29T14:29:02.598Z,100539.84
2023-01-29T14:31:43.870Z,100553.09
2023-01-29T14:34:36.051Z,100550.63
2023-01-29T14:37:44.539Z,100540.81
2023-01-29T14:40:12.806Z,100557.66
2023-01-29T14:43:03.458Z,100555.88
2023-01-29T14:45:42.112Z,100550.44
2023-01-29T14:48:10.543Z,100560.13
2023-01-29T14:50:45.001Z,100572.41
2023-01-29T14:53:30.828Z,100561.84
2023-01-29T14:56:05.761Z,100571.56
2023-01-29T14:58:51.062Z,100581.44
2023-01-29T15:01:31.347Z,100581.63
2023-01-29T15:04:19.769Z,100567.69
2023-01-29T15:06:56.175Z,100576.34
2023-01-29T15:10:21.943Z,100575.47
2023-01-29T15:13:02.670Z,100581.47
2023-01-29T15:15:52.074Z,100573.72
2023-01-29T15:18:35.637Z,100557.00
2023-01-29T15:21:15.451Z,100562.63
2023-01-29T15:23:45.237Z,100542.50
2023-01-29T15:26:19.539Z,100545.16
2023-01-29T15:29:04.796Z,100561.09
2023-01-29T15:31:34.703Z,100555.84
2023-01-29T15:34:09.902Z,100554.13
2023-01-29T15:36:40.090Z,100561.09
2023-01-29T15:39:19.282Z,100568.19
2023-01-29T15:41:48.273Z,100575.16
2023-01-29T15:44:19.252Z,100578.59
2023-01-29T15:46:54.044Z,100578.66
2023-01-29T15:49:31.266Z,100572.53
2023-01-29T15:52:02.432Z,100574.31
2023-01-29T15:54:32.269Z,100580.50
2023-01-29T15:57:05.781Z,100575.44
2023-01-29T15:59:44.939Z,100583.34
2023-01-29T16:02:42.645Z,100586.91
2023-01-29T16:05:18.389Z,100593.97
2023-01-29T16:07:47.381Z,100597.47
2023-01-29T16:10:27.299Z,100590.38
2023-01-29T16:12:55.839Z,100593.13
2023-01-29T16:15:36.224Z,100591.06
2023-01-29T16:18:20.495Z,100591.06
2023-01-29T16:20:55.070Z,100593.78
2023-01-29T16:23:28.184Z,100590.28
2023-01-29T16:26:02.118Z,100591.06
2023-01-29T16:28:30.926Z,100597.28
2023-01-29T16:31:04.118Z,100598.13
2023-01-29T16:33:38.723Z,100599.00
2023-01-29T16:36:18.651Z,100604.41
2023-01-29T16:39:13.238Z,100610.59
2023-01-29T16:41:41.314Z,100609.97
2023-01-29T16:44:21.688Z,100592.28
2023-01-29T16:46:53.176Z,100609.81
2023-01-29T16:49:30.110Z,100608.13
2023-01-29T16:52:19.916Z,100631.00
2023-01-29T16:54:48.026Z,100614.97
2023-01-29T16:57:25.641Z,100620.31
2023-01-29T16:59:58.765Z,100622.28
2023-01-29T17:02:29.398Z,100610.81
2023-01-29T17:05:01.207Z,100617.66
2023-01-29T17:07:30.399Z,100618.78
2023-01-29T17:10:01.199Z,100612.56
2023-01-29T17:12:33.164Z,100604.47
2023-01-29T17:15:06.512Z,100608.94
2023-01-29T17:17:36.762Z,100609.34
2023-01-29T17:20:30.384Z,100599.59
2023-01-29T17:22:59.183Z,100606.66
2023-01-29T17:25:30.544Z,100597.88
2023-01-29T17:28:07.543Z,100607.38
2023-01-29T17:30:40.767Z,100607.56
2023-01-29T17:33:17.700Z,100611.06
2023-01-29T17:35:46.199Z,100610.38
2023-01-29T17:38:25.556Z,100626.16
2023-01-29T17:41:01.238Z,100619.09
2023-01-29T17:43:30.331Z,100607.56
2023-01-29T17:45:58.535Z,100627.00
2023-01-29T17:48:29.692Z,100614.69
2023-01-29T17:51:00.419Z,100603.28
2023-01-29T17:53:44.245Z,100597.38
2023-01-29T17:56:29.817Z,100602.72
2023-01-29T17:58:58.179Z,100604.56
2023-01-29T18:01:26.294Z,100600.19
2023-01-29T18:03:54.741Z,100596.72
2023-01-29T18:06:27.940Z,100589.72
2023-01-29T18:08:59.370Z,100594.19
2023-01-29T18:11:29.539Z,100595.00
2023-01-29T18:13:58.985Z,100598.47
2023-01-29T18:16:37.706Z,100594.94
2023-01-29T18:19:31.479Z,100593.28
2023-01-29T18:22:00.126Z,100577.44
2023-01-29T18:24:28.548Z,100589.91
2023-01-29T18:26:57.123Z,100587.44
2023-01-29T18:29:30.335Z,100591.78
2023-01-29T18:31:59.105Z,100586.75
2023-01-29T18:34:27.587Z,100581.34
2023-01-29T18:36:57.883Z,100576.97
2023-01-29T18:39:26.625Z,100574.25
2023-01-29T18:42:19.890Z,100578.66
2023-01-29T18:44:49.480Z,100578.84
2023-01-29T18:47:20.649Z,100586.66
2023-01-29T18:49:49.203Z,100577.09
2023-01-29T18:52:19.112Z,100589.28
2023-01-29T18:54:48.141Z,100579.03
2023-01-29T18:58:29.196Z,100582.47
2023-01-29T19:00:07.526Z,100592.22
2023-01-29T19:02:36.981Z,100589.34
2023-01-29T19:05:05.974Z,100595.41
2023-01-29T19:07:34.679Z,100584.13
2023-01-29T19:10:05.201Z,100584.13
2023-01-29T19:12:34.662Z,100590.44
2023-01-29T19:15:02.710Z,100593.13
2023-01-29T19:17:30.902Z,100605.47
2023-01-29T19:20:02.590Z,100606.47
2023-01-29T19:22:32.380Z,100609.97
2023-01-29T19:25:00.803Z,100615.97
2023-01-29T19:27:30.880Z,100623.75
2023-01-29T19:29:59.947Z,100632.56
2023-01-29T19:32:29.351Z,100629.13
2023-01-29T19:34:59.389Z,100639.81
2023-01-29T19:37:28.658Z,100639.91
2023-01-29T19:40:01.237Z,100626.72
2023-01-29T19:42:30.972Z,100624.72
2023-01-29T19:45:02.781Z,100622.19
2023-01-29T19:47:32.826Z,100633.66
2023-01-29T19:50:00.938Z,100620.53
2023-01-29T19:52:51.467Z,100627.75
2023-01-29T19:55:23.513Z,100628.44
2023-01-29T19:57:58.316Z,100625.88
2023-01-29T20:00:26.394Z,100635.47
2023-01-29T20:02:55.820Z,100632.97
2023-01-29T20:05:27.529Z,100633.94
2023-01-29T20:07:55.471Z,100627.00
2023-01-29T20:10:23.953Z,100626.88
2023-01-29T20:12:51.953Z,100630.22
2023-01-29T20:15:20.634Z,100617.84
2023-01-29T20:17:49.332Z,100625.81
2023-01-29T20:20:21.419Z,100622.19
2023-01-29T20:22:51.709Z,100627.47
2023-01-29T20:25:23.338Z,100623.13
2023-01-29T20:27:53.103Z,100624.19
2023-01-29T20:30:22.115Z,100620.53
2023-01-29T20:32:50.101Z,100613.47
2023-01-29T20:35:18.473Z,100610.91
2023-01-29T20:37:46.501Z,100623.28
2023-01-29T20:40:17.354Z,100622.38
2023-01-29T20:42:49.613Z,100611.88
2023-01-29T20:45:17.941Z,100618.94
2023-01-29T20:47:50.533Z,100629.53
2023-01-29T20:50:20.480Z,100632.09
2023-01-29T20:52:49.327Z,100625.91
2023-01-29T20:55:17.985Z,100629.47
2023-01-29T20:58:06.368Z,100642.75
2023-01-29T21:00:35.365Z,100633.81
2023-01-29T21:03:03.823Z,100645.06
2023-01-29T21:05:35.353Z,100638.81
2023-01-29T21:08:04.001Z,100636.19
2023-01-29T21:10:32.563Z,100640.72
2023-01-29T21:13:04.374Z,100646.97
2023-01-29T21:15:32.520Z,100635.59
2023-01-29T21:18:04.882Z,100644.44
2023-01-29T21:20:33.146Z,100648.97
2023-01-29T21:23:05.904Z,100644.53
2023-01-29T21:25:35.411Z,100649.75
2023-01-29T21:28:04.755Z,100649.91
2023-01-29T21:30:33.318Z,100643.03
2023-01-29T21:33:02.639Z,100645.63
2023-01-29T21:35:31.469Z,100644.75
2023-01-29T21:38:00.028Z,100640.22
2023-01-29T21:40:30.814Z,100647.22
2023-01-29T21:43:15.877Z,100644.53
2023-01-29T21:45:44.619Z,100649.66
2023-01-29T21:48:12.807Z,100648.72
2023-01-29T21:50:41.008Z,100645.28
2023-01-29T21:53:09.770Z,100653.31
2023-01-29T21:55:38.096Z,100654.16
2023-01-29T21:58:07.212Z,100647.00
2023-01-29T22:00:36.568Z,100657.56
2023-01-29T22:03:07.125Z,100656.69
2023-01-29T22:05:35.637Z,100647.91
2023-01-29T22:08:05.090Z,100647.22
2023-01-29T22:10:35.488Z,100654.22
2023-01-29T22:13:05.657Z,100644.69
2023-01-29T22:15:35.132Z,100648.28
2023-01-29T22:18:04.385Z,100653.63
2023-01-29T22:20:33.093Z,100647.38
2023-01-29T22:23:02.231Z,100653.47
2023-01-29T22:25:32.774Z,100649.97
2023-01-29T22:28:01.441Z,100644.75
2023-01-29T22:30:29.837Z,100654.53
2023-01-29T22:32:58.151Z,100655.28
2023-01-29T22:35:26.189Z,100651.00
2023-01-29T22:37:54.841Z,100645.88
2023-01-29T22:40:23.237Z,100649.47
2023-01-29T22:42:51.534Z,100658.94
2023-01-29T22:45:22.322Z,100652.88
2023-01-29T22:47:51.340Z,100648.47
2023-01-29T22:50:20.001Z,100662.50
2023-01-29T22:52:54.231Z,100649.28
2023-01-29T22:55:24.458Z,100642.19
2023-01-29T22:57:53.891Z,100647.50
2023-01-29T23:00:22.250Z,100653.84
2023-01-29T23:02:50.758Z,100650.25
2023-01-29T23:05:20.740Z,100647.81
2023-01-29T23:07:53.484Z,100640.81
2023-01-29T23:10:31.186Z,100641.63
2023-01-29T23:12:59.447Z,100642.53
2023-01-29T23:15:28.282Z,100640.59
2023-01-29T23:17:56.449Z,100633.56
2023-01-29T23:20:28.799Z,100622.13
2023-01-29T23:22:57.494Z,100624.84
2023-01-29T23:25:48.665Z,100622.13
2023-01-29T23:28:18.744Z,100621.25
2023-01-29T23:30:52.326Z,100618.50
2023-01-29T23:33:20.684Z,100633.44
2023-01-29T23:35:49.047Z,100630.28
2023-01-29T23:38:17.758Z,100636.41
2023-01-29T23:40:47.518Z,100626.94
2023-01-29T23:43:15.791Z,100640.00
2023-01-29T23:45:44.364Z,100635.69
2023-01-29T23:48:12.921Z,100641.72
2023-01-29T23:50:45.014Z,100646.09
2023-01-29T23:53:13.657Z,100639.84
2023-01-29T23:55:42.778Z,100632.81
2023-01-29T23:58:13.800Z,100651.31
